METAR Data
IDs: Format: Raw Decoded Include TAF

Data at: 2019 UTC 19 May 2019

KHHF 192015Z AUTO 12006KT 10SM CLR 23/09 A2997 RMK AO2 T02280093
KHHF 191955Z AUTO 16008G14KT 130V190 10SM CLR 23/10 A2998 RMK AO2 T02310095
KHHF 191935Z AUTO 15008KT 10SM CLR 23/09 A2999 RMK AO2 T02260093
KHHF 191915Z AUTO 13006KT 10SM CLR 23/10 A3001 RMK AO2 T02260097
KHHF 191855Z AUTO 20005KT 10SM CLR 22/09 A3001 RMK AO2 T02160090
KHHF 191835Z AUTO 00000KT 10SM CLR 21/09 A3001 RMK AO2 T02110086
KHHF 191815Z AUTO 00000KT 10SM CLR 21/08 A3002 RMK AO2 T02070084
KHHF 191755Z AUTO 04004KT 10SM CLR 21/09 A3001 RMK AO2 T02050085 10205 20090
KHHF 191735Z AUTO 00000KT 10SM CLR 20/09 A3001 RMK AO2 T01980085
KHHF 191715Z AUTO 34003KT 10SM CLR 19/08 A3000 RMK AO2 T01930084
KHHF 191655Z AUTO 09004KT 10SM CLR 19/09 A2999 RMK AO2 T01940091
KHHF 191635Z AUTO 01004KT 10SM CLR 19/09 A3000 RMK AO2 T01880089
KHHF 191615Z AUTO 35008KT 10SM CLR 18/09 A3001 RMK AO2 T01800085
KHHF 191555Z AUTO 35007KT 320V020 10SM CLR 18/09 A3000 RMK AO2 T01760089
KHHF 191535Z AUTO 36007KT 10SM CLR 17/09 A2999 RMK AO2 T01700088
KHHF 191515Z AUTO 36009KT 10SM CLR 16/09 A2998 RMK AO2 T01640089
KHHF 191455Z AUTO 36010G14KT 10SM CLR 16/09 A2998 RMK AO2 T01550086
KHHF 191435Z AUTO 01011G17KT 10SM CLR 15/08 A2997 RMK AO2 T01470083
KHHF 191415Z AUTO 02012G16KT 10SM CLR 14/08 A2996 RMK AO2 T01440083
KHHF 191355Z AUTO 36012KT 10SM CLR 14/09 A2996 RMK AO2 T01370085
KHHF 191335Z AUTO 35008KT 10SM CLR 13/09 A2997 RMK AO2 T01270089
KHHF 191315Z AUTO 33005KT 10SM CLR 12/09 A2997 RMK AO2 T01180086
KHHF 191255Z AUTO 31005KT 10SM CLR 11/09 A2997 RMK AO2 T01100086
KHHF 191235Z AUTO 00000KT 10SM CLR 10/08 A2995 RMK AO2 T01020081
KHHF 191215Z AUTO 00000KT 10SM CLR 09/07 A2994 RMK AO2 T00920074
KHHF 191155Z AUTO 00000KT 10SM CLR 09/07 A2993 RMK AO2 T00900072 10108 20083
KHHF 191135Z AUTO 32003KT 10SM CLR 09/07 A2992 RMK AO2 T00920073
KHHF 191115Z AUTO 28003KT 10SM CLR 09/07 A2991 RMK AO2 T00900071
KHHF 191055Z AUTO 00000KT 10SM CLR 09/07 A2990 RMK AO2 T00870071
KHHF 191035Z AUTO 00000KT 10SM CLR 09/07 A2990 RMK AO2 T00850071
KHHF 191015Z AUTO 00000KT 10SM CLR 10/07 A2990 RMK AO2 T00950073
KHHF 190955Z AUTO 00000KT 10SM CLR 10/08 A2989 RMK AO2 T00990076
KHHF 190935Z AUTO 00000KT 10SM CLR 10/08 A2988 RMK AO2 T01000076
KHHF 190915Z AUTO 00000KT 10SM CLR 10/08 A2988 RMK AO2 T01040077
KHHF 190855Z AUTO 00000KT 10SM CLR 08/07 A2988 RMK AO2 T00840065
KHHF 190835Z AUTO 00000KT 10SM CLR 10/08 A2988 RMK AO2 T01000075
KHHF 190815Z AUTO 00000KT 10SM CLR 10/08 A2987 RMK AO2 T01020076
KHHF 190755Z AUTO 00000KT 10SM CLR 09/07 A2987 RMK AO2 T00850069
KHHF 190735Z AUTO 28004KT 10SM CLR 10/08 A2987 RMK AO2 T01020075
KHHF 190715Z AUTO 00000KT 10SM CLR 09/07 A2986 RMK AO2 T00910072
KHHF 190655Z AUTO 00000KT 10SM CLR 10/07 A2984 RMK AO2 T01000074
KHHF 190635Z AUTO 00000KT 10SM CLR 10/07 A2984 RMK AO2 T01030072
KHHF 190615Z AUTO 00000KT 10SM CLR 11/07 A2984 RMK AO2 T01060073
KHHF 190555Z AUTO 31003KT 10SM CLR 11/07 A2983 RMK AO2 T01090074 10261 20094 402780094
KHHF 190535Z AUTO 35004KT 10SM CLR 12/08 A2982 RMK AO2 T01170075
KHHF 190515Z AUTO 35006KT 10SM CLR 13/08 A2981 RMK AO2 T01270075
KHHF 190455Z AUTO 33008KT 10SM CLR 13/07 A2980 RMK AO2 T01280072
KHHF 190435Z AUTO 32007KT 10SM CLR 13/07 A2979 RMK AO2 T01270074
KHHF 190415Z AUTO 27005KT 10SM CLR 10/07 A2979 RMK AO2 T01010071
KHHF 190355Z AUTO 00000KT 10SM CLR 12/08 A2975 RMK AO2 T01160075
KHHF 190335Z AUTO 00000KT 10SM CLR 13/08 A2974 RMK AO2 T01300075
KHHF 190315Z AUTO 00000KT 10SM CLR 15/08 A2972 RMK AO2 T01450075
KHHF 190255Z AUTO 00000KT 10SM CLR 15/07 A2970 RMK AO2 T01530073
KHHF 190235Z AUTO 01005KT 10SM CLR 16/07 A2969 RMK AO2 T01620070
KHHF 190215Z AUTO 01006KT 10SM CLR 17/07 A2967 RMK AO2 T01660065
KHHF 190155Z AUTO 01006KT 10SM CLR 18/06 A2965 RMK AO2 T01750061
KHHF 190135Z AUTO 35009G18KT 10SM CLR 19/06 A2965 RMK AO2 T01860056
KHHF 190115Z AUTO 36011G26KT 10SM CLR 22/05 A2962 RMK AO2 T02180047
KHHF 190055Z AUTO 29013G21KT 10SM CLR 25/M04 A2958 RMK AO2 T02461041
KHHF 190035Z AUTO 27014G31KT 10SM CLR 26/M05 A2957 RMK AO2 T02561051
KHHF 190015Z AUTO 27010G16KT 10SM CLR 25/M06 A2956 RMK AO2 T02491061
KHHF 182355Z AUTO 26020G26KT 10SM CLR 26/M07 A2955 RMK AO2 T02601069 10278 20222
KHHF 182335Z AUTO 26017G22KT 10SM CLR 26/M03 A2955 RMK AO2 T02631033
KHHF 182315Z AUTO 27015G21KT 10SM CLR 27/M02 A2954 RMK AO2 T02671018
KHHF 182255Z AUTO 27014G22KT 10SM CLR 27/M02 A2954 RMK AO2 T02681016
KHHF 182235Z AUTO 24015G22KT 10SM CLR 27/M02 A2954 RMK AO2 T02711023
KHHF 182215Z AUTO 24014G23KT 10SM CLR 27/M03 A2954 RMK AO2 T02721032
KHHF 182155Z AUTO 25014G20KT 10SM CLR 28/M02 A2954 RMK AO2 T02751024
KHHF 182135Z AUTO 25016G21KT 10SM CLR 28/M01 A2954 RMK AO2 T02781009
KHHF 182115Z AUTO 27006G20KT 240V300 10SM CLR 28/01 A2954 RMK AO2 T02750012
KHHF 182055Z AUTO 27012G20KT 10SM SCT110 27/01 A2955 RMK AO2 T02740010
KHHF 182035Z AUTO 24008KT 10SM BKN100 27/05 A2955 RMK AO2 T02660049
KHHF 182015Z AUTO 19008G11KT 10SM SCT100 27/05 A2955 RMK AO2 T02680049
KHHF 181955Z AUTO 27010KT 10SM CLR 27/08 A2956 RMK AO2 T02670076
KHHF 181935Z AUTO 30008KT 10SM CLR 26/10 A2956 RMK AO2 T02560097
KHHF 181915Z AUTO 26006KT 10SM CLR 25/11 A2957 RMK AO2 T02530107
KHHF 181855Z AUTO 27007G14KT 10SM CLR 25/11 A2957 RMK AO2 T02460108
KHHF 181835Z AUTO 30007KT 10SM CLR 24/12 A2957 RMK AO2 T02400124
KHHF 181815Z AUTO 28010KT 10SM CLR 23/13 A2958 RMK AO2 T02330134
KHHF 181755Z AUTO 28006KT 10SM CLR 22/14 A2959 RMK AO2 T02190138 10219 20141
KHHF 181735Z AUTO 25005KT 10SM CLR 22/14 A2960 RMK AO2 T02150137
KHHF 181715Z AUTO 32005KT 10SM CLR 20/13 A2960 RMK AO2 T02040133
KHHF 181655Z AUTO 32005KT 10SM CLR 19/13 A2961 RMK AO2 T01930127
KHHF 181635Z AUTO 32008KT 290V360 10SM CLR 19/13 A2961 RMK AO2 T01910126
KHHF 181615Z AUTO 33008KT 10SM CLR 18/12 A2960 RMK AO2 T01840124
KHHF 181555Z AUTO 31005KT 10SM CLR 18/12 A2962 RMK AO2 T01760119
KHHF 181535Z AUTO 33007KT 10SM CLR 17/12 A2963 RMK AO2 T01720120
KHHF 181515Z AUTO 31006KT 10SM CLR 17/12 A2964 RMK AO2 T01650119
KHHF 181455Z AUTO 32005KT 10SM SCT021 16/12 A2964 RMK AO2 LTG DSNT NE T01570116
KHHF 181435Z AUTO 31006KT 10SM SCT021 15/12 A2963 RMK AO2 T01520115
KHHF 181415Z AUTO 32005KT 10SM CLR 15/12 A2963 RMK AO2 T01480118
KHHF 181355Z AUTO 30008KT 10SM CLR 15/12 A2963 RMK AO2 T01480119
KHHF 181335Z AUTO 33003KT 10SM CLR 15/12 A2963 RMK AO2 T01470116
KHHF 181315Z AUTO 00000KT 10SM CLR 14/12 A2965 RMK AO2 T01440116
KHHF 181255Z AUTO 08003KT 10SM CLR 14/12 A2965 RMK AO2 T01430115
KHHF 181235Z AUTO 00000KT 10SM CLR 14/12 A2964 RMK AO2 T01410117
KHHF 181215Z AUTO 34004KT 10SM CLR 14/12 A2962 RMK AO2 T01410116
KHHF 181155Z AUTO 01005KT 10SM CLR 14/12 A2963 RMK AO2 T01410118 10225 20135
KHHF 181135Z AUTO 35005KT 10SM CLR 14/12 A2963 RMK AO2 T01350116
KHHF 181115Z AUTO 27003KT 10SM CLR 14/11 A2965 RMK AO2 T01430105
KHHF 181055Z AUTO 27003KT 10SM CLR 14/10 A2963 RMK AO2 T01370101
KHHF 181035Z AUTO 29005KT 10SM CLR 14/10 A2962 RMK AO2 T01410097
KHHF 181015Z AUTO 24004KT 10SM CLR 16/11 A2961 RMK AO2 T01560110
KHHF 180955Z AUTO 21005KT 10SM CLR 17/12 A2963 RMK AO2 T01660119
KHHF 180935Z AUTO 27004KT 10SM CLR 18/16 A2964 RMK AO2 T01820158
KHHF 180915Z AUTO 27005KT 10SM CLR 19/18 A2963 RMK AO2 T01900183
KHHF 180855Z AUTO 23006KT 10SM CLR 20/19 A2962 RMK AO2 T02010190
KHHF 180835Z AUTO 21010KT 10SM CLR 21/19 A2962 RMK AO2 T02050193